Terminal Aerodrome Forecast
Issued by NWS Northern Indiana

Home | Current Version | Previous Version | Text Only | Print | Product List | Glossary On
Versions: 1 2 3 4 5 6 7 8 9 10 11 12 13 14 15 16
000
FTUS43 KIWX 231700
TAFFWA
TAF
KFWA 231740Z 2318/2418 20008KT P6SM BKN040
     FM240600 05007KT 3SM -RA OVC015
     FM241000 10008KT 2SM -RA BR OVC006=

USA.gov is the U.S. government's official web portal to all federal, state and local government web resources and services.